Arabia, OH

5:02 PM EDT on August 30, 2016 (GMT -0400)
Lloyd Kentucky | | Change Station

Elev 545 ft 38.63 °N, 82.87 °W | Updated 32 seconds ago

Partly Cloudy
Partly Cloudy
91.0 °F
Feels Like 90 °F
N
0.0
Wind Variable Wind from SSW
Gusts 0.0 mph

Today
High -- | Low -- °F
--% Chance of Precip.
Yesterday
High -- | Low -- °F
Precip. -- in
Pressure 30.03 in
Visibility 10.0 miles
Clouds Few 6000 ft
Heat Index 90 °F
Dew Point 60 °F
Humidity 35%
Rainfall 0.00 in
Snow Depth Not available.
6:58 AM 8:02 PM
Waning Crescent, 2% visible
METAR KHTS 302051Z 03005KT 10SM FEW060 33/17 A3006 RMK AO2 SLP168 T03330167 56018
Pressure 30.03 in
Visibility 10.0 miles
Clouds Few 6000 ft
Heat Index 90 °F
Dew Point 60 °F
Humidity 35%
Rainfall 0.00 in
Snow Depth Not available.
6:58 AM 8:02 PM
Waning Crescent, 2% visible
METAR KHTS 302051Z 03005KT 10SM FEW060 33/17 A3006 RMK AO2 SLP168 T03330167 56018

10-Day Weather Forecast

Almanac

Astronomy

Aug. 30, 2016 Rise Set
Actual Time
Civil Twilight
Nautical Twilight
Astronomical Twilight
Moon
Length of Visible Light
Length of Day
Tomorrow will be .
, % of the Moon is Illuminated

Today's Extremes

State Highs State Lows

Community

WunderPhotos

Upload Photos

1,935,894 photos uploaded!

WunderBlog® & News

Nearby

Air Quality

  Air Quality AQ Index Pollutant
Not available.

Snow Depth

Station Depth Elevation

Earthquake Activity

City Distance Mag. Time & Date
Minimum magnitude displayed is 2.5.

Coastal Water Temperatures

Place Temperature

Stations

Nearby Weather Stations

Station Location Temp. Windchill Dew Point Humidity Wind Precip. Elev Updated Type
                   

Watches & Warnings

There are currently no watches in effect.